Ibapah, UT (84034)

8:59 AM MDT on September 01, 2014 (GMT -0600)
MesoWest GOSHUTE UT US SCAN | Change Station
CLOSE
Current Station
Personal Weather Station
Location: Ibapah, UT
Elevation: 5470 ft
Nearby Weather Stations

Elev 5470 ft 39.99 °N, 114.00 °W | Updated 59 minutes ago

Clear
Clear
50 °F
Feels Like 48 °F
N
5
Wind Variable Wind from SSW
Gusts 0.0 mph

Today
High -- | Low -- °F
--% Chance of Precip.
Yesterday
High -- | Low -- °F
Precip. -- in
7:03 AM 8:07 PM
Waxing Crescent, 41% visible
Pressure 30.09 in
Visibility 10.0 miles
Clouds Clear
Windchill 48 °F
Dew Point 37 °F
Humidity 61%
Rainfall -999.00 in
Snow Depth Not available.
UV 2 out of 12
Pollen 8.20 out of 12
PM2.5 Good
Flu Activity Not available.
METAR KENV 011455Z 14005KT 10SM CLR 18/03 A3009 RMK AO1 52020

More Conditions Fewer Conditions

Pressure 30.09 in
Visibility 10.0 miles
Clouds Clear
Windchill 48 °F
Dew Point 37 °F
Humidity 61%
Rainfall -999.00 in
Snow Depth Not available.
UV 2 out of 12
Pollen 8.20 out of 12
PM2.5 Good
Flu Activity Not available.
METAR KENV 011455Z 14005KT 10SM CLR 18/03 A3009 RMK AO1 52020

More Conditions Fewer Conditions

10-Day Weather Forecast

Almanac

Astronomy

Sep. 01, 2014 Rise Set
Actual Time 7:03 AM MDT 8:07 PM MDT
Civil Twilight 6:35 AM MDT 8:35 PM MDT
Nautical Twilight 6:02 AM MDT 9:08 PM MDT
Astronomical Twilight 5:28 AM MDT 9:42 PM MDT
Moon 1:53 PM MDT No Moon Set
Length of Visible Light 13h 59m
Length of Day
13h 03m
Tomorrow will be 2m 32s shorter.
Waxing Crescent, 41% of the Moon is Illuminated
Today
Waxing Crescent
Sep 2
First Quarter
Sep 8
Full
Sep 15
Last Quarter
Sep 24
New

Today's Extremes

State Highs State Lows

Community

WunderPhotos

Upload Photos

1,749,253 photos uploaded!

Nearby

Air Quality

  Air Quality AQ Index Pollutant
Yesterday Good
OZONE
Yesterday Good
PM2.5
Current Good
PM2.5

Snow Depth

Station Depth Elevation
Vernon Creek 0 in 7500 ft
Rocky Basin-Settlement 0 in 8900 ft
Dry Fork 0 in 7160 ft
Payson R.S. 0 in 8050 ft
Cascade Mountain 1 in 7768 ft

Earthquake Activity

City Distance Mag. Time & Date
No recent earthquake activity has been reported nearby.
Minimum magnitude displayed is 2.5.

Coastal Water Temperatures

Place Temperature
No Stations Reporting

Nearby Weather Stations